sensor_id;sensor_type;location;lat;lon;timestamp;P1;durP1;ratioP1;P2;durP2;ratioP2
505;SDS011;551;48.524;9.056;2023-08-12T00:00:20;11.53;;;7.73;;
505;SDS011;551;48.524;9.056;2023-08-12T00:02:46;7.00;;;6.30;;
505;SDS011;551;48.524;9.056;2023-08-12T00:05:12;7.70;;;5.37;;
505;SDS011;551;48.524;9.056;2023-08-12T00:07:38;7.47;;;6.40;;
505;SDS011;551;48.524;9.056;2023-08-12T00:10:06;6.93;;;6.33;;
505;SDS011;551;48.524;9.056;2023-08-12T00:12:33;7.40;;;5.77;;
505;SDS011;551;48.524;9.056;2023-08-12T00:14:59;9.70;;;6.30;;
505;SDS011;551;48.524;9.056;2023-08-12T00:17:25;12.60;;;6.97;;
505;SDS011;551;48.524;9.056;2023-08-12T00:19:51;6.87;;;6.17;;
505;SDS011;551;48.524;9.056;2023-08-12T00:22:16;8.07;;;6.80;;
505;SDS011;551;48.524;9.056;2023-08-12T00:24:42;8.40;;;6.17;;
505;SDS011;551;48.524;9.056;2023-08-12T00:27:08;8.20;;;6.33;;
505;SDS011;551;48.524;9.056;2023-08-12T00:29:34;8.23;;;6.70;;
505;SDS011;551;48.524;9.056;2023-08-12T00:31:59;7.43;;;6.27;;
505;SDS011;551;48.524;9.056;2023-08-12T00:34:25;6.70;;;6.10;;
505;SDS011;551;48.524;9.056;2023-08-12T00:36:51;7.80;;;6.73;;
505;SDS011;551;48.524;9.056;2023-08-12T00:39:16;11.73;;;6.83;;
505;SDS011;551;48.524;9.056;2023-08-12T00:41:42;6.53;;;5.77;;
505;SDS011;551;48.524;9.056;2023-08-12T00:44:07;9.80;;;6.40;;
505;SDS011;551;48.524;9.056;2023-08-12T00:46:33;6.80;;;6.07;;
505;SDS011;551;48.524;9.056;2023-08-12T00:48:59;10.00;;;6.43;;
505;SDS011;551;48.524;9.056;2023-08-12T00:51:25;6.83;;;6.20;;
505;SDS011;551;48.524;9.056;2023-08-12T00:53:51;7.50;;;6.33;;
505;SDS011;551;48.524;9.056;2023-08-12T00:56:18;8.10;;;6.67;;
505;SDS011;551;48.524;9.056;2023-08-12T00:58:44;10.93;;;5.77;;
505;SDS011;551;48.524;9.056;2023-08-12T01:01:10;9.03;;;5.80;;
505;SDS011;551;48.524;9.056;2023-08-12T01:03:37;6.67;;;6.00;;
505;SDS011;551;48.524;9.056;2023-08-12T01:06:02;6.77;;;5.67;;
505;SDS011;551;48.524;9.056;2023-08-12T01:08:28;6.67;;;5.97;;
505;SDS011;551;48.524;9.056;2023-08-12T01:10:58;6.20;;;5.67;;
505;SDS011;551;48.524;9.056;2023-08-12T01:13:49;8.00;;;6.33;;
505;SDS011;551;48.524;9.056;2023-08-12T01:16:23;7.63;;;5.90;;
505;SDS011;551;48.524;9.056;2023-08-12T01:18:54;9.73;;;6.00;;
505;SDS011;551;48.524;9.056;2023-08-12T01:21:20;6.73;;;6.03;;
505;SDS011;551;48.524;9.056;2023-08-12T01:23:49;7.00;;;6.30;;
505;SDS011;551;48.524;9.056;2023-08-12T01:26:15;7.10;;;6.50;;
505;SDS011;551;48.524;9.056;2023-08-12T01:28:41;9.33;;;6.43;;
505;SDS011;551;48.524;9.056;2023-08-12T01:31:23;12.47;;;6.87;;
505;SDS011;551;48.524;9.056;2023-08-12T01:36:25;7.83;;;6.00;;
505;SDS011;551;48.524;9.056;2023-08-12T01:38:56;7.20;;;6.60;;
505;SDS011;551;48.524;9.056;2023-08-12T01:41:25;9.13;;;6.57;;
505;SDS011;551;48.524;9.056;2023-08-12T01:43:51;7.40;;;5.80;;
505;SDS011;551;48.524;9.056;2023-08-12T01:46:16;10.50;;;6.97;;
505;SDS011;551;48.524;9.056;2023-08-12T01:48:42;8.33;;;6.13;;
505;SDS011;551;48.524;9.056;2023-08-12T01:51:08;8.50;;;6.33;;
505;SDS011;551;48.524;9.056;2023-08-12T01:53:33;7.60;;;6.80;;
505;SDS011;551;48.524;9.056;2023-08-12T01:55:59;9.00;;;8.07;;
505;SDS011;551;48.524;9.056;2023-08-12T01:58:24;7.43;;;6.53;;
505;SDS011;551;48.524;9.056;2023-08-12T02:00:51;7.73;;;6.93;;
505;SDS011;551;48.524;9.056;2023-08-12T02:03:17;9.93;;;6.73;;
505;SDS011;551;48.524;9.056;2023-08-12T02:05:43;14.50;;;7.37;;
505;SDS011;551;48.524;9.056;2023-08-12T02:08:08;8.63;;;6.50;;
505;SDS011;551;48.524;9.056;2023-08-12T02:10:34;7.07;;;6.37;;
505;SDS011;551;48.524;9.056;2023-08-12T02:12:59;9.30;;;6.97;;
505;SDS011;551;48.524;9.056;2023-08-12T02:15:25;8.87;;;7.23;;
505;SDS011;551;48.524;9.056;2023-08-12T02:17:50;8.37;;;6.53;;
505;SDS011;551;48.524;9.056;2023-08-12T02:20:16;7.90;;;7.10;;
505;SDS011;551;48.524;9.056;2023-08-12T02:22:42;10.03;;;6.70;;
505;SDS011;551;48.524;9.056;2023-08-12T02:25:08;10.80;;;7.33;;
505;SDS011;551;48.524;9.056;2023-08-12T02:27:33;7.13;;;6.53;;
505;SDS011;551;48.524;9.056;2023-08-12T02:29:59;7.57;;;6.30;;
505;SDS011;551;48.524;9.056;2023-08-12T02:32:24;9.13;;;6.60;;
505;SDS011;551;48.524;9.056;2023-08-12T02:34:50;8.70;;;6.70;;
505;SDS011;551;48.524;9.056;2023-08-12T02:37:15;9.00;;;6.70;;
505;SDS011;551;48.524;9.056;2023-08-12T02:39:41;9.60;;;7.20;;
505;SDS011;551;48.524;9.056;2023-08-12T02:42:07;7.93;;;6.53;;
505;SDS011;551;48.524;9.056;2023-08-12T02:44:32;7.50;;;6.63;;
505;SDS011;551;48.524;9.056;2023-08-12T02:46:58;8.50;;;6.60;;
505;SDS011;551;48.524;9.056;2023-08-12T02:49:23;8.53;;;7.23;;
505;SDS011;551;48.524;9.056;2023-08-12T02:51:49;7.50;;;6.80;;
505;SDS011;551;48.524;9.056;2023-08-12T02:54:14;10.57;;;6.87;;
505;SDS011;551;48.524;9.056;2023-08-12T02:56:40;7.70;;;6.90;;
505;SDS011;551;48.524;9.056;2023-08-12T02:59:05;7.23;;;6.47;;
505;SDS011;551;48.524;9.056;2023-08-12T03:01:31;7.70;;;6.90;;
505;SDS011;551;48.524;9.056;2023-08-12T03:03:56;8.47;;;7.67;;
505;SDS011;551;48.524;9.056;2023-08-12T03:06:22;8.80;;;7.10;;
505;SDS011;551;48.524;9.056;2023-08-12T03:08:47;8.00;;;6.87;;
505;SDS011;551;48.524;9.056;2023-08-12T03:11:13;10.30;;;6.90;;
505;SDS011;551;48.524;9.056;2023-08-12T03:13:38;8.30;;;7.50;;
505;SDS011;551;48.524;9.056;2023-08-12T03:16:04;11.13;;;7.20;;
505;SDS011;551;48.524;9.056;2023-08-12T03:18:29;9.07;;;6.50;;
505;SDS011;551;48.524;9.056;2023-08-12T03:20:55;7.83;;;7.00;;
505;SDS011;551;48.524;9.056;2023-08-12T03:23:20;11.43;;;7.73;;
505;SDS011;551;48.524;9.056;2023-08-12T03:25:46;9.17;;;8.23;;
505;SDS011;551;48.524;9.056;2023-08-12T03:28:13;7.47;;;6.77;;
505;SDS011;551;48.524;9.056;2023-08-12T03:30:38;9.83;;;7.27;;
505;SDS011;551;48.524;9.056;2023-08-12T03:33:04;10.07;;;7.23;;
505;SDS011;551;48.524;9.056;2023-08-12T03:35:30;12.03;;;6.80;;
505;SDS011;551;48.524;9.056;2023-08-12T03:37:55;10.33;;;8.50;;
505;SDS011;551;48.524;9.056;2023-08-12T03:40:21;8.20;;;7.40;;
505;SDS011;551;48.524;9.056;2023-08-12T03:42:46;9.57;;;7.60;;
505;SDS011;551;48.524;9.056;2023-08-12T03:45:12;9.10;;;6.70;;
505;SDS011;551;48.524;9.056;2023-08-12T03:47:37;7.50;;;6.80;;
505;SDS011;551;48.524;9.056;2023-08-12T03:50:03;8.40;;;7.23;;
505;SDS011;551;48.524;9.056;2023-08-12T03:52:28;6.67;;;6.07;;
505;SDS011;551;48.524;9.056;2023-08-12T03:54:54;10.30;;;7.30;;
505;SDS011;551;48.524;9.056;2023-08-12T03:57:19;9.17;;;7.20;;
505;SDS011;551;48.524;9.056;2023-08-12T03:59:45;7.73;;;6.93;;
505;SDS011;551;48.524;9.056;2023-08-12T04:02:11;7.73;;;6.90;;
505;SDS011;551;48.524;9.056;2023-08-12T04:04:36;8.30;;;7.57;;
505;SDS011;551;48.524;9.056;2023-08-12T04:07:02;9.10;;;6.90;;
505;SDS011;551;48.524;9.056;2023-08-12T04:09:27;8.00;;;7.20;;
505;SDS011;551;48.524;9.056;2023-08-12T04:11:53;10.43;;;7.97;;
505;SDS011;551;48.524;9.056;2023-08-12T04:14:18;8.10;;;7.30;;
505;SDS011;551;48.524;9.056;2023-08-12T04:16:44;11.30;;;7.40;;
505;SDS011;551;48.524;9.056;2023-08-12T04:19:09;8.10;;;7.30;;
505;SDS011;551;48.524;9.056;2023-08-12T04:21:35;8.53;;;6.70;;
505;SDS011;551;48.524;9.056;2023-08-12T04:24:00;8.20;;;7.40;;
505;SDS011;551;48.524;9.056;2023-08-12T04:26:26;8.77;;;7.10;;
505;SDS011;551;48.524;9.056;2023-08-12T04:28:52;12.70;;;8.23;;
505;SDS011;551;48.524;9.056;2023-08-12T04:31:17;8.13;;;7.40;;
505;SDS011;551;48.524;9.056;2023-08-12T04:33:43;10.00;;;7.80;;
505;SDS011;551;48.524;9.056;2023-08-12T04:36:08;8.47;;;7.67;;
505;SDS011;551;48.524;9.056;2023-08-12T04:38:34;10.30;;;7.93;;
505;SDS011;551;48.524;9.056;2023-08-12T04:41:00;9.67;;;8.07;;
505;SDS011;551;48.524;9.056;2023-08-12T04:43:25;8.70;;;7.90;;
505;SDS011;551;48.524;9.056;2023-08-12T04:45:51;9.57;;;8.17;;
505;SDS011;551;48.524;9.056;2023-08-12T04:48:17;12.60;;;7.80;;
505;SDS011;551;48.524;9.056;2023-08-12T04:50:43;9.77;;;7.27;;
505;SDS011;551;48.524;9.056;2023-08-12T04:53:08;9.10;;;7.30;;
505;SDS011;551;48.524;9.056;2023-08-12T04:55:34;12.03;;;7.93;;
505;SDS011;551;48.524;9.056;2023-08-12T04:58:01;8.67;;;7.00;;
505;SDS011;551;48.524;9.056;2023-08-12T05:00:27;11.90;;;7.90;;
505;SDS011;551;48.524;9.056;2023-08-12T05:02:53;10.73;;;7.00;;
505;SDS011;551;48.524;9.056;2023-08-12T05:05:18;8.90;;;7.43;;
505;SDS011;551;48.524;9.056;2023-08-12T05:07:44;9.50;;;7.60;;
505;SDS011;551;48.524;9.056;2023-08-12T05:10:13;8.50;;;7.13;;
505;SDS011;551;48.524;9.056;2023-08-12T05:12:42;9.30;;;8.17;;
505;SDS011;551;48.524;9.056;2023-08-12T05:15:08;7.50;;;6.80;;
505;SDS011;551;48.524;9.056;2023-08-12T05:17:34;7.47;;;6.67;;
505;SDS011;551;48.524;9.056;2023-08-12T05:20:00;8.70;;;6.93;;
505;SDS011;551;48.524;9.056;2023-08-12T05:22:25;9.47;;;7.23;;
505;SDS011;551;48.524;9.056;2023-08-12T05:24:51;10.63;;;7.40;;
505;SDS011;551;48.524;9.056;2023-08-12T05:27:16;8.60;;;7.27;;
505;SDS011;551;48.524;9.056;2023-08-12T05:29:42;12.37;;;8.00;;
505;SDS011;551;48.524;9.056;2023-08-12T05:32:07;12.80;;;7.50;;
505;SDS011;551;48.524;9.056;2023-08-12T05:34:33;9.23;;;8.33;;
505;SDS011;551;48.524;9.056;2023-08-12T05:36:58;8.90;;;7.60;;
505;SDS011;551;48.524;9.056;2023-08-12T05:39:24;9.60;;;6.70;;
505;SDS011;551;48.524;9.056;2023-08-12T05:41:49;12.97;;;7.53;;
505;SDS011;551;48.524;9.056;2023-08-12T05:44:17;8.53;;;6.77;;
505;SDS011;551;48.524;9.056;2023-08-12T05:46:42;12.60;;;8.17;;
505;SDS011;551;48.524;9.056;2023-08-12T05:49:08;7.90;;;6.80;;
505;SDS011;551;48.524;9.056;2023-08-12T05:51:34;8.17;;;6.87;;
505;SDS011;551;48.524;9.056;2023-08-12T05:54:00;8.37;;;6.20;;
505;SDS011;551;48.524;9.056;2023-08-12T05:56:26;10.80;;;7.50;;
505;SDS011;551;48.524;9.056;2023-08-12T05:58:51;10.57;;;7.70;;
505;SDS011;551;48.524;9.056;2023-08-12T06:01:17;7.70;;;6.87;;
505;SDS011;551;48.524;9.056;2023-08-12T06:03:42;7.87;;;7.13;;
505;SDS011;551;48.524;9.056;2023-08-12T06:06:08;6.87;;;6.23;;
505;SDS011;551;48.524;9.056;2023-08-12T06:08:34;11.40;;;6.63;;
505;SDS011;551;48.524;9.056;2023-08-12T06:10:59;8.77;;;7.93;;
505;SDS011;551;48.524;9.056;2023-08-12T06:13:25;9.37;;;7.27;;
505;SDS011;551;48.524;9.056;2023-08-12T06:15:50;6.80;;;6.03;;
505;SDS011;551;48.524;9.056;2023-08-12T06:18:16;7.37;;;6.70;;
505;SDS011;551;48.524;9.056;2023-08-12T06:20:41;6.80;;;5.93;;
505;SDS011;551;48.524;9.056;2023-08-12T06:23:07;7.47;;;6.60;;
505;SDS011;551;48.524;9.056;2023-08-12T06:25:32;6.50;;;5.80;;
505;SDS011;551;48.524;9.056;2023-08-12T06:27:58;8.63;;;6.87;;
505;SDS011;551;48.524;9.056;2023-08-12T06:30:24;6.67;;;5.97;;
505;SDS011;551;48.524;9.056;2023-08-12T06:32:49;7.20;;;5.90;;
505;SDS011;551;48.524;9.056;2023-08-12T06:35:15;6.30;;;5.70;;
505;SDS011;551;48.524;9.056;2023-08-12T06:37:40;8.50;;;6.83;;
505;SDS011;551;48.524;9.056;2023-08-12T06:40:06;9.07;;;7.03;;
505;SDS011;551;48.524;9.056;2023-08-12T06:42:32;7.90;;;6.83;;
505;SDS011;551;48.524;9.056;2023-08-12T06:44:58;7.60;;;6.83;;
505;SDS011;551;48.524;9.056;2023-08-12T06:47:25;8.40;;;6.43;;
505;SDS011;551;48.524;9.056;2023-08-12T06:49:52;7.30;;;6.70;;
505;SDS011;551;48.524;9.056;2023-08-12T06:52:18;8.40;;;6.77;;
505;SDS011;551;48.524;9.056;2023-08-12T06:54:43;6.73;;;6.20;;
505;SDS011;551;48.524;9.056;2023-08-12T06:57:09;6.50;;;5.90;;
505;SDS011;551;48.524;9.056;2023-08-12T06:59:36;7.10;;;6.50;;
505;SDS011;551;48.524;9.056;2023-08-12T07:02:02;8.57;;;6.40;;
505;SDS011;551;48.524;9.056;2023-08-12T07:04:28;5.73;;;5.30;;
505;SDS011;551;48.524;9.056;2023-08-12T07:06:53;7.10;;;6.13;;
505;SDS011;551;48.524;9.056;2023-08-12T07:09:19;6.43;;;5.93;;
505;SDS011;551;48.524;9.056;2023-08-12T07:11:44;10.40;;;5.50;;
505;SDS011;551;48.524;9.056;2023-08-12T07:14:10;6.77;;;6.20;;
505;SDS011;551;48.524;9.056;2023-08-12T07:16:36;6.20;;;5.70;;
505;SDS011;551;48.524;9.056;2023-08-12T07:19:02;7.13;;;5.60;;
505;SDS011;551;48.524;9.056;2023-08-12T07:21:27;6.30;;;5.80;;
505;SDS011;551;48.524;9.056;2023-08-12T07:23:53;6.40;;;5.80;;
505;SDS011;551;48.524;9.056;2023-08-12T07:26:18;5.37;;;4.97;;
505;SDS011;551;48.524;9.056;2023-08-12T07:28:44;6.80;;;6.20;;
505;SDS011;551;48.524;9.056;2023-08-12T07:31:10;6.60;;;6.00;;
505;SDS011;551;48.524;9.056;2023-08-12T07:33:35;6.10;;;5.60;;
505;SDS011;551;48.524;9.056;2023-08-12T07:36:01;5.63;;;5.13;;
505;SDS011;551;48.524;9.056;2023-08-12T07:38:27;5.80;;;5.30;;
505;SDS011;551;48.524;9.056;2023-08-12T07:40:52;6.37;;;5.97;;
505;SDS011;551;48.524;9.056;2023-08-12T07:43:18;6.00;;;5.47;;
505;SDS011;551;48.524;9.056;2023-08-12T07:45:44;7.03;;;5.63;;
505;SDS011;551;48.524;9.056;2023-08-12T07:48:09;6.17;;;5.77;;
505;SDS011;551;48.524;9.056;2023-08-12T07:50:35;5.87;;;5.47;;
505;SDS011;551;48.524;9.056;2023-08-12T07:53:00;6.13;;;5.73;;
505;SDS011;551;48.524;9.056;2023-08-12T07:55:27;6.13;;;5.73;;
505;SDS011;551;48.524;9.056;2023-08-12T07:57:52;6.57;;;6.17;;
505;SDS011;551;48.524;9.056;2023-08-12T08:00:18;6.27;;;5.77;;
505;SDS011;551;48.524;9.056;2023-08-12T08:02:44;6.20;;;5.60;;
505;SDS011;551;48.524;9.056;2023-08-12T08:05:10;6.80;;;6.40;;
505;SDS011;551;48.524;9.056;2023-08-12T08:07:35;6.60;;;6.00;;
505;SDS011;551;48.524;9.056;2023-08-12T08:10:01;6.80;;;6.30;;
505;SDS011;551;48.524;9.056;2023-08-12T08:12:27;7.07;;;6.57;;
505;SDS011;551;48.524;9.056;2023-08-12T08:14:52;7.73;;;6.47;;
505;SDS011;551;48.524;9.056;2023-08-12T08:17:18;6.37;;;5.77;;
505;SDS011;551;48.524;9.056;2023-08-12T08:19:43;7.00;;;6.07;;
505;SDS011;551;48.524;9.056;2023-08-12T08:22:08;6.47;;;5.87;;
505;SDS011;551;48.524;9.056;2023-08-12T08:24:34;8.63;;;6.07;;
505;SDS011;551;48.524;9.056;2023-08-12T08:27:00;6.70;;;6.10;;
505;SDS011;551;48.524;9.056;2023-08-12T08:29:25;8.43;;;6.50;;
505;SDS011;551;48.524;9.056;2023-08-12T08:31:51;8.50;;;6.60;;
505;SDS011;551;48.524;9.056;2023-08-12T08:34:16;7.10;;;6.40;;
505;SDS011;551;48.524;9.056;2023-08-12T08:36:42;8.27;;;7.00;;
505;SDS011;551;48.524;9.056;2023-08-12T08:39:08;9.70;;;6.70;;
505;SDS011;551;48.524;9.056;2023-08-12T08:41:34;6.63;;;6.03;;
505;SDS011;551;48.524;9.056;2023-08-12T08:44:03;6.90;;;6.40;;
505;SDS011;551;48.524;9.056;2023-08-12T08:46:32;7.60;;;7.00;;
505;SDS011;551;48.524;9.056;2023-08-12T08:48:58;7.93;;;6.50;;
505;SDS011;551;48.524;9.056;2023-08-12T08:51:29;7.00;;;6.40;;
505;SDS011;551;48.524;9.056;2023-08-12T08:53:56;7.50;;;6.37;;
505;SDS011;551;48.524;9.056;2023-08-12T08:56:22;5.73;;;5.20;;
505;SDS011;551;48.524;9.056;2023-08-12T08:58:48;5.73;;;5.33;;
505;SDS011;551;48.524;9.056;2023-08-12T09:01:14;6.17;;;5.67;;
505;SDS011;551;48.524;9.056;2023-08-12T09:03:43;6.20;;;5.60;;
505;SDS011;551;48.524;9.056;2023-08-12T09:06:09;5.83;;;5.33;;
505;SDS011;551;48.524;9.056;2023-08-12T09:08:34;6.30;;;5.80;;
505;SDS011;551;48.524;9.056;2023-08-12T09:11:02;7.13;;;6.50;;
505;SDS011;551;48.524;9.056;2023-08-12T09:13:28;7.10;;;6.30;;
505;SDS011;551;48.524;9.056;2023-08-12T09:15:54;6.80;;;6.27;;
505;SDS011;551;48.524;9.056;2023-08-12T09:18:20;11.43;;;6.53;;
505;SDS011;551;48.524;9.056;2023-08-12T09:20:49;6.10;;;5.70;;
505;SDS011;551;48.524;9.056;2023-08-12T09:23:21;7.77;;;6.33;;
505;SDS011;551;48.524;9.056;2023-08-12T09:25:46;6.60;;;6.10;;
505;SDS011;551;48.524;9.056;2023-08-12T09:28:12;6.23;;;5.83;;
505;SDS011;551;48.524;9.056;2023-08-12T09:30:38;6.17;;;5.60;;
505;SDS011;551;48.524;9.056;2023-08-12T09:33:05;6.80;;;6.30;;
505;SDS011;551;48.524;9.056;2023-08-12T09:35:33;6.63;;;6.03;;
505;SDS011;551;48.524;9.056;2023-08-12T09:38:03;8.97;;;6.30;;
505;SDS011;551;48.524;9.056;2023-08-12T09:40:30;6.13;;;5.73;;
505;SDS011;551;48.524;9.056;2023-08-12T09:42:57;6.57;;;5.97;;
505;SDS011;551;48.524;9.056;2023-08-12T09:45:25;5.90;;;5.40;;
505;SDS011;551;48.524;9.056;2023-08-12T09:47:52;6.00;;;5.50;;
505;SDS011;551;48.524;9.056;2023-08-12T09:50:22;6.37;;;5.80;;
505;SDS011;551;48.524;9.056;2023-08-12T09:52:50;6.20;;;5.70;;
505;SDS011;551;48.524;9.056;2023-08-12T09:55:17;8.13;;;5.60;;
505;SDS011;551;48.524;9.056;2023-08-12T09:57:43;6.70;;;6.10;;
505;SDS011;551;48.524;9.056;2023-08-12T10:00:12;6.00;;;5.60;;
505;SDS011;551;48.524;9.056;2023-08-12T10:02:42;5.40;;;4.90;;
505;SDS011;551;48.524;9.056;2023-08-12T10:05:08;6.23;;;5.60;;
505;SDS011;551;48.524;9.056;2023-08-12T10:07:37;5.83;;;5.43;;
505;SDS011;551;48.524;9.056;2023-08-12T10:10:05;6.40;;;5.90;;
505;SDS011;551;48.524;9.056;2023-08-12T10:12:32;6.73;;;5.80;;
505;SDS011;551;48.524;9.056;2023-08-12T10:14:59;13.33;;;6.83;;
505;SDS011;551;48.524;9.056;2023-08-12T10:17:25;6.40;;;5.77;;
505;SDS011;551;48.524;9.056;2023-08-12T10:19:55;5.80;;;5.30;;
505;SDS011;551;48.524;9.056;2023-08-12T10:22:22;6.73;;;6.13;;
505;SDS011;551;48.524;9.056;2023-08-12T10:24:50;6.80;;;5.00;;
505;SDS011;551;48.524;9.056;2023-08-12T10:27:16;9.60;;;5.20;;
505;SDS011;551;48.524;9.056;2023-08-12T10:29:43;6.10;;;5.70;;
505;SDS011;551;48.524;9.056;2023-08-12T10:32:10;9.83;;;6.87;;
505;SDS011;551;48.524;9.056;2023-08-12T10:34:36;12.60;;;7.77;;
505;SDS011;551;48.524;9.056;2023-08-12T10:37:02;9.50;;;8.50;;
505;SDS011;551;48.524;9.056;2023-08-12T10:39:28;9.80;;;8.10;;
505;SDS011;551;48.524;9.056;2023-08-12T10:41:56;8.40;;;7.60;;
505;SDS011;551;48.524;9.056;2023-08-12T10:44:23;7.33;;;6.57;;
505;SDS011;551;48.524;9.056;2023-08-12T10:46:52;6.00;;;5.50;;
505;SDS011;551;48.524;9.056;2023-08-12T10:49:19;7.23;;;4.50;;
505;SDS011;551;48.524;9.056;2023-08-12T10:51:49;7.77;;;4.23;;
505;SDS011;551;48.524;9.056;2023-08-12T10:54:24;4.47;;;4.17;;
505;SDS011;551;48.524;9.056;2023-08-12T11:02:18;3.93;;;3.53;;
505;SDS011;551;48.524;9.056;2023-08-12T11:04:55;4.10;;;3.80;;
505;SDS011;551;48.524;9.056;2023-08-12T11:07:43;5.40;;;4.20;;
505;SDS011;551;48.524;9.056;2023-08-12T11:10:22;3.93;;;3.70;;
505;SDS011;551;48.524;9.056;2023-08-12T11:15:35;3.73;;;3.43;;
505;SDS011;551;48.524;9.056;2023-08-12T11:18:02;5.87;;;4.03;;
505;SDS011;551;48.524;9.056;2023-08-12T11:20:30;4.30;;;4.00;;
505;SDS011;551;48.524;9.056;2023-08-12T11:22:56;4.00;;;3.43;;
505;SDS011;551;48.524;9.056;2023-08-12T11:25:23;4.00;;;3.60;;
505;SDS011;551;48.524;9.056;2023-08-12T11:27:49;3.63;;;3.43;;
505;SDS011;551;48.524;9.056;2023-08-12T11:30:15;5.03;;;3.20;;
505;SDS011;551;48.524;9.056;2023-08-12T11:32:42;4.40;;;4.10;;
505;SDS011;551;48.524;9.056;2023-08-12T11:35:09;4.80;;;3.60;;
505;SDS011;551;48.524;9.056;2023-08-12T11:37:36;5.33;;;3.63;;
505;SDS011;551;48.524;9.056;2023-08-12T11:40:03;4.63;;;4.20;;
505;SDS011;551;48.524;9.056;2023-08-12T11:42:30;3.83;;;3.60;;
505;SDS011;551;48.524;9.056;2023-08-12T11:44:56;4.10;;;3.77;;
505;SDS011;551;48.524;9.056;2023-08-12T11:47:21;4.17;;;3.57;;
505;SDS011;551;48.524;9.056;2023-08-12T11:49:47;4.70;;;4.33;;
505;SDS011;551;48.524;9.056;2023-08-12T11:52:12;5.10;;;4.77;;
505;SDS011;551;48.524;9.056;2023-08-12T11:54:39;7.40;;;4.23;;
505;SDS011;551;48.524;9.056;2023-08-12T11:57:05;4.63;;;4.23;;
505;SDS011;551;48.524;9.056;2023-08-12T11:59:31;4.80;;;4.47;;
505;SDS011;551;48.524;9.056;2023-08-12T12:01:56;5.10;;;4.60;;
505;SDS011;551;48.524;9.056;2023-08-12T12:04:22;7.27;;;5.07;;
505;SDS011;551;48.524;9.056;2023-08-12T12:06:48;4.20;;;3.80;;
505;SDS011;551;48.524;9.056;2023-08-12T12:09:13;4.87;;;4.33;;
505;SDS011;551;48.524;9.056;2023-08-12T12:11:43;4.90;;;4.60;;
505;SDS011;551;48.524;9.056;2023-08-12T12:14:09;5.20;;;4.00;;
505;SDS011;551;48.524;9.056;2023-08-12T12:16:39;8.60;;;4.30;;
505;SDS011;551;48.524;9.056;2023-08-12T12:19:08;4.63;;;4.17;;
505;SDS011;551;48.524;9.056;2023-08-12T12:21:43;4.23;;;3.93;;
505;SDS011;551;48.524;9.056;2023-08-12T12:24:11;4.70;;;4.30;;
505;SDS011;551;48.524;9.056;2023-08-12T12:26:36;7.60;;;4.20;;
505;SDS011;551;48.524;9.056;2023-08-12T12:29:05;4.37;;;4.07;;
505;SDS011;551;48.524;9.056;2023-08-12T12:31:31;5.20;;;4.70;;
505;SDS011;551;48.524;9.056;2023-08-12T12:33:58;4.10;;;3.80;;
505;SDS011;551;48.524;9.056;2023-08-12T12:36:24;4.83;;;3.83;;
505;SDS011;551;48.524;9.056;2023-08-12T12:38:49;4.50;;;3.77;;
505;SDS011;551;48.524;9.056;2023-08-12T12:41:15;8.03;;;3.80;;
505;SDS011;551;48.524;9.056;2023-08-12T12:43:40;24.87;;;5.53;;
505;SDS011;551;48.524;9.056;2023-08-12T12:46:06;15.77;;;4.50;;
505;SDS011;551;48.524;9.056;2023-08-12T12:48:32;12.67;;;5.20;;
505;SDS011;551;48.524;9.056;2023-08-12T12:50:58;4.33;;;3.23;;
505;SDS011;551;48.524;9.056;2023-08-12T12:53:23;4.73;;;4.20;;
505;SDS011;551;48.524;9.056;2023-08-12T12:55:49;7.57;;;3.70;;
505;SDS011;551;48.524;9.056;2023-08-12T12:58:14;7.23;;;3.40;;
505;SDS011;551;48.524;9.056;2023-08-12T13:00:41;4.53;;;3.23;;
505;SDS011;551;48.524;9.056;2023-08-12T13:03:06;6.00;;;3.13;;
505;SDS011;551;48.524;9.056;2023-08-12T13:05:32;5.60;;;3.00;;
505;SDS011;551;48.524;9.056;2023-08-12T13:07:57;5.30;;;3.53;;
505;SDS011;551;48.524;9.056;2023-08-12T13:10:23;4.77;;;3.27;;
505;SDS011;551;48.524;9.056;2023-08-12T13:12:48;5.20;;;3.37;;
505;SDS011;551;48.524;9.056;2023-08-12T13:15:14;5.33;;;3.00;;
505;SDS011;551;48.524;9.056;2023-08-12T13:17:40;6.00;;;3.20;;
505;SDS011;551;48.524;9.056;2023-08-12T13:20:06;3.57;;;2.70;;
505;SDS011;551;48.524;9.056;2023-08-12T13:22:32;3.80;;;3.40;;
505;SDS011;551;48.524;9.056;2023-08-12T13:24:57;4.80;;;3.10;;
505;SDS011;551;48.524;9.056;2023-08-12T13:27:23;3.90;;;3.40;;
505;SDS011;551;48.524;9.056;2023-08-12T13:29:48;6.03;;;3.03;;
505;SDS011;551;48.524;9.056;2023-08-12T13:32:14;5.70;;;2.63;;
505;SDS011;551;48.524;9.056;2023-08-12T13:34:39;4.90;;;2.67;;
505;SDS011;551;48.524;9.056;2023-08-12T13:37:05;5.47;;;2.70;;
505;SDS011;551;48.524;9.056;2023-08-12T13:39:30;3.37;;;3.00;;
505;SDS011;551;48.524;9.056;2023-08-12T13:41:56;3.63;;;2.80;;
505;SDS011;551;48.524;9.056;2023-08-12T13:44:22;2.50;;;2.30;;
505;SDS011;551;48.524;9.056;2023-08-12T13:46:47;3.10;;;2.10;;
505;SDS011;551;48.524;9.056;2023-08-12T13:49:13;3.10;;;2.80;;
505;SDS011;551;48.524;9.056;2023-08-12T13:51:38;5.77;;;2.67;;
505;SDS011;551;48.524;9.056;2023-08-12T13:54:04;3.97;;;2.63;;
505;SDS011;551;48.524;9.056;2023-08-12T13:56:29;3.00;;;2.60;;
505;SDS011;551;48.524;9.056;2023-08-12T13:58:55;2.43;;;2.23;;
505;SDS011;551;48.524;9.056;2023-08-12T14:01:21;4.10;;;2.87;;
505;SDS011;551;48.524;9.056;2023-08-12T14:03:46;3.17;;;2.90;;
505;SDS011;551;48.524;9.056;2023-08-12T14:06:12;10.30;;;3.33;;
505;SDS011;551;48.524;9.056;2023-08-12T14:08:37;3.00;;;2.80;;
505;SDS011;551;48.524;9.056;2023-08-12T14:11:03;5.40;;;2.50;;
505;SDS011;551;48.524;9.056;2023-08-12T14:13:28;2.63;;;2.43;;
505;SDS011;551;48.524;9.056;2023-08-12T14:15:54;3.20;;;2.90;;
505;SDS011;551;48.524;9.056;2023-08-12T14:18:19;3.47;;;3.17;;
505;SDS011;551;48.524;9.056;2023-08-12T14:20:45;3.10;;;2.77;;
505;SDS011;551;48.524;9.056;2023-08-12T14:23:10;3.90;;;2.90;;
505;SDS011;551;48.524;9.056;2023-08-12T14:25:36;3.00;;;2.73;;
505;SDS011;551;48.524;9.056;2023-08-12T14:28:01;2.80;;;2.43;;
505;SDS011;551;48.524;9.056;2023-08-12T14:30:27;5.57;;;3.10;;
505;SDS011;551;48.524;9.056;2023-08-12T14:32:53;3.70;;;3.40;;
505;SDS011;551;48.524;9.056;2023-08-12T14:35:19;5.00;;;3.10;;
505;SDS011;551;48.524;9.056;2023-08-12T14:37:45;3.03;;;2.70;;
505;SDS011;551;48.524;9.056;2023-08-12T14:40:10;3.27;;;2.97;;
505;SDS011;551;48.524;9.056;2023-08-12T14:42:36;3.53;;;3.23;;
505;SDS011;551;48.524;9.056;2023-08-12T14:45:02;5.70;;;2.93;;
505;SDS011;551;48.524;9.056;2023-08-12T14:47:28;4.13;;;2.53;;
505;SDS011;551;48.524;9.056;2023-08-12T14:49:53;6.17;;;3.30;;
505;SDS011;551;48.524;9.056;2023-08-12T14:52:19;5.77;;;3.20;;
505;SDS011;551;48.524;9.056;2023-08-12T14:54:45;4.67;;;2.87;;
505;SDS011;551;48.524;9.056;2023-08-12T14:57:11;3.50;;;3.20;;
505;SDS011;551;48.524;9.056;2023-08-12T14:59:37;4.43;;;3.10;;
505;SDS011;551;48.524;9.056;2023-08-12T15:02:03;3.53;;;3.23;;
505;SDS011;551;48.524;9.056;2023-08-12T15:04:29;3.73;;;3.33;;
505;SDS011;551;48.524;9.056;2023-08-12T15:06:54;6.93;;;3.17;;
505;SDS011;551;48.524;9.056;2023-08-12T15:09:20;4.00;;;3.17;;
505;SDS011;551;48.524;9.056;2023-08-12T15:11:46;4.60;;;4.20;;
505;SDS011;551;48.524;9.056;2023-08-12T15:14:11;5.67;;;3.20;;
505;SDS011;551;48.524;9.056;2023-08-12T15:16:37;4.07;;;3.77;;
505;SDS011;551;48.524;9.056;2023-08-12T15:19:02;3.70;;;3.30;;
505;SDS011;551;48.524;9.056;2023-08-12T15:21:28;4.27;;;3.97;;
505;SDS011;551;48.524;9.056;2023-08-12T15:23:55;5.73;;;4.27;;
505;SDS011;551;48.524;9.056;2023-08-12T15:26:20;5.20;;;3.97;;
505;SDS011;551;48.524;9.056;2023-08-12T15:28:47;6.20;;;4.07;;
505;SDS011;551;48.524;9.056;2023-08-12T15:31:13;3.93;;;3.63;;
505;SDS011;551;48.524;9.056;2023-08-12T15:33:40;3.73;;;3.40;;
505;SDS011;551;48.524;9.056;2023-08-12T15:36:06;4.30;;;4.00;;
505;SDS011;551;48.524;9.056;2023-08-12T15:38:32;3.90;;;3.60;;
505;SDS011;551;48.524;9.056;2023-08-12T15:40:58;3.90;;;3.50;;
505;SDS011;551;48.524;9.056;2023-08-12T15:43:24;5.43;;;3.40;;
505;SDS011;551;48.524;9.056;2023-08-12T15:45:50;4.40;;;3.60;;
505;SDS011;551;48.524;9.056;2023-08-12T15:48:16;4.87;;;3.90;;